Time;durP1;ratioP1;P1;durP2;ratioP2;P2;SDS_P1;SDS_P2;PMS_P1;PMS_P2;Temp;Humidity;BMP_temperature;BMP_pressure;BME280_temperature;BME280_humidity;BME280_pressure;Samples;Min_cycle;Max_cycle;Signal;HPM_P1;HPM_P2
2023/06/03 00:01:04;;;;;;;8.93;4.73;;;;;;;;;;5093499;28;20046;-66
2023/06/03 00:03:31;;;;;;;9.32;4.97;;;;;;;;;;5092910;28;20342;-66
2023/06/03 00:05:57;;;;;;;14.23;5.68;;;;;;;;;;5092669;28;20012;-66
2023/06/03 00:08:22;;;;;;;21.50;6.25;;;;;;;;;;5088280;28;20415;-66
2023/06/03 00:10:47;;;;;;;10.55;6.20;;;;;;;;;;5094042;28;20031;-66
2023/06/03 00:13:12;;;;;;;13.25;5.75;;;;;;;;;;5092416;28;20032;-66
2023/06/03 00:15:38;;;;;;;10.75;5.55;;;;;;;;;;5093675;28;20051;-66
2023/06/03 00:18:04;;;;;;;15.55;5.88;;;;;;;;;;5091733;28;20032;-66
2023/06/03 00:20:33;;;;;;;20.05;6.45;;;;;;;;;;5091354;28;20066;-66
2023/06/03 00:22:58;;;;;;;15.60;5.75;;;;;;;;;;5092287;28;20115;-66
2023/06/03 00:25:23;;;;;;;10.80;6.00;;;;;;;;;;5098420;28;20051;-66
2023/06/03 00:27:49;;;;;;;14.98;6.40;;;;;;;;;;5110774;28;20027;-66
2023/06/03 00:30:14;;;;;;;14.30;6.28;;;;;;;;;;5103846;28;20016;-66
2023/06/03 00:32:42;;;;;;;14.07;5.75;;;;;;;;;;5105238;28;20024;-66
2023/06/03 00:35:07;;;;;;;11.88;5.45;;;;;;;;;;5111150;28;20015;-66
2023/06/03 00:37:33;;;;;;;12.00;4.90;;;;;;;;;;5110217;28;20236;-66
2023/06/03 00:39:58;;;;;;;14.48;5.20;;;;;;;;;;5111049;28;20023;-66
2023/06/03 00:42:23;;;;;;;9.70;4.57;;;;;;;;;;5096851;28;20107;-66
2023/06/03 00:44:48;;;;;;;15.15;6.32;;;;;;;;;;5111731;28;20028;-66
2023/06/03 00:47:17;;;;;;;10.70;5.45;;;;;;;;;;5110044;28;20027;-66
2023/06/03 00:49:42;;;;;;;14.23;5.63;;;;;;;;;;5110621;28;20023;-66
2023/06/03 00:52:08;;;;;;;18.38;5.55;;;;;;;;;;5110648;28;20440;-66
2023/06/03 00:54:33;;;;;;;12.85;5.75;;;;;;;;;;5111168;28;20497;-66
2023/06/03 00:56:59;;;;;;;7.65;5.75;;;;;;;;;;5110035;28;20051;-66
2023/06/03 00:59:25;;;;;;;12.15;6.30;;;;;;;;;;5110665;28;20028;-66
2023/06/03 01:01:50;;;;;;;14.13;5.47;;;;;;;;;;5110065;28;20482;-66
2023/06/03 01:04:16;;;;;;;14.60;6.53;;;;;;;;;;5108345;28;20019;-66
2023/06/03 01:06:51;;;;;;;9.27;6.03;;;;;;;;;;5105049;28;20016;-65
2023/06/03 01:09:29;;;;;;;10.10;6.15;;;;;;;;;;5107284;28;20390;-66
2023/06/03 01:12:03;;;;;;;13.20;6.07;;;;;;;;;;5108874;28;20414;-65
2023/06/03 01:14:37;;;;;;;16.73;7.65;;;;;;;;;;5104562;28;20024;-66
2023/06/03 01:17:09;;;;;;;14.25;6.35;;;;;;;;;;5097958;28;20474;-66
2023/06/03 01:19:39;;;;;;;16.48;6.72;;;;;;;;;;5104236;28;20032;-66
2023/06/03 01:22:07;;;;;;;14.32;7.25;;;;;;;;;;5078171;28;20015;-66
2023/06/03 01:24:34;;;;;;;21.88;7.78;;;;;;;;;;5070658;28;20024;-66
2023/06/03 01:27:00;;;;;;;16.13;6.38;;;;;;;;;;5072878;28;20016;-66
2023/06/03 01:29:25;;;;;;;11.90;7.15;;;;;;;;;;5073346;28;20096;-66
2023/06/03 01:31:51;;;;;;;10.45;5.82;;;;;;;;;;5072690;28;20540;-66
2023/06/03 01:34:17;;;;;;;13.43;6.97;;;;;;;;;;5078708;28;20039;-66
2023/06/03 01:36:42;;;;;;;10.70;6.72;;;;;;;;;;5075536;28;20055;-66
2023/06/03 01:39:08;;;;;;;20.83;7.47;;;;;;;;;;5075974;28;20857;-66
2023/06/03 01:41:34;;;;;;;12.95;6.57;;;;;;;;;;5076077;28;21392;-66
2023/06/03 01:43:59;;;;;;;9.38;6.40;;;;;;;;;;5092847;28;20031;-65
2023/06/03 01:46:24;;;;;;;10.77;5.88;;;;;;;;;;5097953;28;20027;-65
2023/06/03 01:48:50;;;;;;;15.30;5.97;;;;;;;;;;5094133;28;20091;-66
2023/06/03 01:51:15;;;;;;;13.60;7.38;;;;;;;;;;5094373;28;20031;-65
2023/06/03 01:53:40;;;;;;;9.10;6.53;;;;;;;;;;5094614;28;20513;-65
2023/06/03 01:56:05;;;;;;;11.53;6.70;;;;;;;;;;5109868;28;20385;-65
2023/06/03 01:58:31;;;;;;;11.13;6.43;;;;;;;;;;5113534;28;20285;-66
2023/06/03 02:00:56;;;;;;;9.00;6.50;;;;;;;;;;5098717;28;20028;-65
2023/06/03 02:03:21;;;;;;;21.60;6.63;;;;;;;;;;5101178;28;20285;-65
2023/06/03 02:05:47;;;;;;;11.13;6.85;;;;;;;;;;5112470;28;20420;-65
2023/06/03 02:08:12;;;;;;;14.75;7.28;;;;;;;;;;5111663;28;20120;-65
2023/06/03 02:10:37;;;;;;;15.00;7.10;;;;;;;;;;5101956;28;20103;-66
2023/06/03 02:13:03;;;;;;;13.63;6.72;;;;;;;;;;5113311;28;20066;-66
2023/06/03 02:15:28;;;;;;;14.05;6.35;;;;;;;;;;5102675;28;20036;-66
2023/06/03 02:17:55;;;;;;;10.87;6.70;;;;;;;;;;5102946;28;20019;-66
2023/06/03 02:20:22;;;;;;;15.75;7.63;;;;;;;;;;5095727;28;20331;-66
2023/06/03 02:22:47;;;;;;;13.70;6.18;;;;;;;;;;5093951;28;20016;-66
2023/06/03 02:25:13;;;;;;;25.27;7.75;;;;;;;;;;5098705;28;20038;-66
2023/06/03 02:27:38;;;;;;;13.15;7.00;;;;;;;;;;5113186;28;20076;-65
2023/06/03 02:30:04;;;;;;;10.50;6.78;;;;;;;;;;5110725;28;20081;-66
2023/06/03 02:32:30;;;;;;;13.50;7.35;;;;;;;;;;5107108;28;20024;-65
2023/06/03 02:34:55;;;;;;;12.38;7.30;;;;;;;;;;5111073;28;20034;-66
2023/06/03 02:37:20;;;;;;;14.48;6.75;;;;;;;;;;5111262;28;20043;-66
2023/06/03 02:39:46;;;;;;;11.10;7.05;;;;;;;;;;5111676;28;20474;-66
2023/06/03 02:42:11;;;;;;;15.00;7.97;;;;;;;;;;5113049;28;21730;-66
2023/06/03 02:44:37;;;;;;;13.35;7.47;;;;;;;;;;5112884;28;20050;-67
2023/06/03 02:47:02;;;;;;;12.13;6.70;;;;;;;;;;5112634;28;20112;-65
2023/06/03 02:49:27;;;;;;;11.45;6.60;;;;;;;;;;5103745;28;20030;-65
2023/06/03 02:51:53;;;;;;;11.02;7.00;;;;;;;;;;5092241;28;20446;-66
2023/06/03 02:54:18;;;;;;;14.80;7.70;;;;;;;;;;5076111;28;20065;-65
2023/06/03 02:56:44;;;;;;;13.93;7.60;;;;;;;;;;5094503;28;20028;-65
2023/06/03 02:59:10;;;;;;;11.57;6.93;;;;;;;;;;5092978;28;20636;-66
2023/06/03 03:01:35;;;;;;;14.05;6.80;;;;;;;;;;5093040;28;20024;-66
2023/06/03 03:04:01;;;;;;;13.23;7.25;;;;;;;;;;5098767;28;20030;-66
2023/06/03 03:06:26;;;;;;;20.13;8.40;;;;;;;;;;5093129;28;20039;-66
2023/06/03 03:08:52;;;;;;;20.33;7.18;;;;;;;;;;5097898;28;20024;-66
2023/06/03 03:11:18;;;;;;;17.13;7.63;;;;;;;;;;5093636;28;20126;-66
2023/06/03 03:13:44;;;;;;;15.90;8.55;;;;;;;;;;5113021;28;20180;-65
2023/06/03 03:16:09;;;;;;;14.68;7.85;;;;;;;;;;5111769;28;20027;-65
2023/06/03 03:18:35;;;;;;;17.10;8.77;;;;;;;;;;5112365;28;20110;-66
2023/06/03 03:21:00;;;;;;;15.15;7.70;;;;;;;;;;5112092;28;20023;-66
2023/06/03 03:23:27;;;;;;;15.18;8.32;;;;;;;;;;5105038;28;20032;-65
2023/06/03 03:25:52;;;;;;;11.98;8.48;;;;;;;;;;5106125;28;20401;-65
2023/06/03 03:28:18;;;;;;;9.60;7.35;;;;;;;;;;5112606;28;20038;-65
2023/06/03 03:30:43;;;;;;;11.45;8.07;;;;;;;;;;5112207;28;20028;-66
2023/06/03 03:33:08;;;;;;;17.98;9.25;;;;;;;;;;5106357;28;20031;-65
2023/06/03 03:35:39;;;;;;;20.73;8.65;;;;;;;;;;5112638;28;20059;-65
2023/06/03 03:38:05;;;;;;;17.27;9.13;;;;;;;;;;5111717;28;20023;-65
2023/06/03 03:40:31;;;;;;;14.40;8.50;;;;;;;;;;5112090;28;20106;-65
2023/06/03 03:42:58;;;;;;;16.40;8.90;;;;;;;;;;5103895;28;20111;-65
2023/06/03 03:45:27;;;;;;;15.05;8.75;;;;;;;;;;5093042;28;20032;-65
2023/06/03 03:47:55;;;;;;;13.35;9.23;;;;;;;;;;5092588;28;20043;-65
2023/06/03 03:50:23;;;;;;;14.98;8.82;;;;;;;;;;5094231;28;20030;-65
2023/06/03 03:52:49;;;;;;;17.25;8.38;;;;;;;;;;5093513;28;20020;-65
2023/06/03 03:55:16;;;;;;;13.27;8.88;;;;;;;;;;5095113;28;20023;-65
2023/06/03 03:57:41;;;;;;;11.55;8.40;;;;;;;;;;5093621;28;20024;-65
2023/06/03 04:00:09;;;;;;;14.05;8.68;;;;;;;;;;5097414;28;20011;-66
2023/06/03 04:02:36;;;;;;;13.88;8.38;;;;;;;;;;5102753;28;20107;-65
2023/06/03 04:05:03;;;;;;;16.67;9.40;;;;;;;;;;5106363;28;20110;-65
2023/06/03 04:07:33;;;;;;;14.77;8.63;;;;;;;;;;5102671;28;20035;-65
2023/06/03 04:09:58;;;;;;;16.92;8.52;;;;;;;;;;5095732;28;20032;-66
2023/06/03 04:12:23;;;;;;;14.32;8.38;;;;;;;;;;5101815;28;20023;-65
2023/06/03 04:14:50;;;;;;;13.17;8.30;;;;;;;;;;5098944;28;20034;-65
2023/06/03 04:17:19;;;;;;;16.60;8.57;;;;;;;;;;5109950;28;20269;-65
2023/06/03 04:19:48;;;;;;;18.85;9.00;;;;;;;;;;5093245;28;20617;-66
2023/06/03 04:22:17;;;;;;;15.80;8.30;;;;;;;;;;5101981;28;20031;-66
2023/06/03 04:24:42;;;;;;;16.88;7.78;;;;;;;;;;5093324;28;20026;-65
2023/06/03 04:27:08;;;;;;;13.90;8.13;;;;;;;;;;5100740;28;20032;-65
2023/06/03 04:29:34;;;;;;;13.90;8.45;;;;;;;;;;5107543;28;20028;-66
2023/06/03 04:31:59;;;;;;;15.52;8.43;;;;;;;;;;5091547;28;20040;-66
2023/06/03 04:34:28;;;;;;;11.98;8.32;;;;;;;;;;5093435;28;20385;-65
2023/06/03 04:36:53;;;;;;;13.45;8.55;;;;;;;;;;5068133;28;20134;-66
2023/06/03 04:39:19;;;;;;;13.30;8.32;;;;;;;;;;5062842;28;20064;-65
2023/06/03 04:41:44;;;;;;;14.82;8.20;;;;;;;;;;5063726;28;20031;-66
2023/06/03 04:44:11;;;;;;;16.05;7.45;;;;;;;;;;5066705;28;20020;-66
2023/06/03 04:46:36;;;;;;;12.48;7.13;;;;;;;;;;5067125;28;20019;-65
2023/06/03 04:49:01;;;;;;;14.98;7.63;;;;;;;;;;5104567;28;20390;-66
2023/06/03 04:51:33;;;;;;;14.65;7.43;;;;;;;;;;5091899;28;20020;-66
2023/06/03 04:53:58;;;;;;;11.30;7.43;;;;;;;;;;5091280;28;20107;-65
2023/06/03 04:56:24;;;;;;;18.33;8.68;;;;;;;;;;5099787;28;20460;-66
2023/06/03 04:58:55;;;;;;;9.73;6.38;;;;;;;;;;5098693;28;20020;-65
2023/06/03 05:01:23;;;;;;;19.83;7.95;;;;;;;;;;5106134;28;20042;-65
2023/06/03 05:03:49;;;;;;;15.10;7.80;;;;;;;;;;5102370;28;20359;-65
2023/06/03 05:06:14;;;;;;;9.48;7.03;;;;;;;;;;5105641;28;20053;-65
2023/06/03 05:08:40;;;;;;;16.55;7.07;;;;;;;;;;5105143;28;20138;-66
2023/06/03 05:11:05;;;;;;;12.55;7.00;;;;;;;;;;5108171;28;20418;-65
2023/06/03 05:13:31;;;;;;;12.05;7.00;;;;;;;;;;5104078;28;20073;-65
2023/06/03 05:15:56;;;;;;;12.93;7.25;;;;;;;;;;5104676;28;20020;-65
2023/06/03 05:18:21;;;;;;;15.32;7.57;;;;;;;;;;5070783;28;20046;-64
2023/06/03 05:20:46;;;;;;;13.00;7.23;;;;;;;;;;5069871;28;20015;-64
2023/06/03 05:23:12;;;;;;;13.05;7.03;;;;;;;;;;5072110;28;20751;-64
2023/06/03 05:25:37;;;;;;;12.95;7.00;;;;;;;;;;5114705;28;20038;-64
2023/06/03 05:28:02;;;;;;;14.73;6.40;;;;;;;;;;5108723;28;20630;-64
2023/06/03 05:30:27;;;;;;;11.75;6.63;;;;;;;;;;5112366;28;20040;-64
2023/06/03 05:32:53;;;;;;;9.03;5.90;;;;;;;;;;5103341;28;20122;-64
2023/06/03 05:35:19;;;;;;;12.03;7.00;;;;;;;;;;5103450;28;20676;-64
2023/06/03 05:37:45;;;;;;;13.07;7.32;;;;;;;;;;5108405;28;20285;-64
2023/06/03 05:40:11;;;;;;;15.23;6.88;;;;;;;;;;5112832;28;20036;-64
2023/06/03 05:42:36;;;;;;;11.88;7.82;;;;;;;;;;5093878;28;20036;-64
2023/06/03 05:45:01;;;;;;;11.63;6.68;;;;;;;;;;5059454;28;20109;-64
2023/06/03 05:47:26;;;;;;;10.50;6.00;;;;;;;;;;5083286;28;20047;-64
2023/06/03 05:49:52;;;;;;;9.80;6.93;;;;;;;;;;5099972;28;20016;-65
2023/06/03 05:52:17;;;;;;;10.00;6.20;;;;;;;;;;5100549;28;20016;-64
2023/06/03 05:54:42;;;;;;;9.73;6.63;;;;;;;;;;5103291;28;20284;-64
2023/06/03 05:57:07;;;;;;;12.27;6.77;;;;;;;;;;5104509;28;20281;-64
2023/06/03 05:59:33;;;;;;;13.60;6.60;;;;;;;;;;5093970;28;20266;-64
2023/06/03 06:01:58;;;;;;;14.55;6.28;;;;;;;;;;5107635;28;20301;-64
2023/06/03 06:04:23;;;;;;;11.15;6.80;;;;;;;;;;5094485;28;20103;-64
2023/06/03 06:06:48;;;;;;;14.93;5.90;;;;;;;;;;5094973;28;20081;-65
2023/06/03 06:09:14;;;;;;;11.80;6.05;;;;;;;;;;5089833;28;20253;-64
2023/06/03 06:11:39;;;;;;;14.68;5.25;;;;;;;;;;5100606;28;20019;-64
2023/06/03 06:14:05;;;;;;;9.43;5.40;;;;;;;;;;5113546;28;20019;-64
2023/06/03 06:16:30;;;;;;;5.80;4.80;;;;;;;;;;5104214;28;20087;-64
2023/06/03 06:18:56;;;;;;;8.67;5.13;;;;;;;;;;5090851;28;20077;-64
2023/06/03 06:21:21;;;;;;;10.90;4.97;;;;;;;;;;5081193;28;21109;-64
2023/06/03 06:23:47;;;;;;;13.82;4.63;;;;;;;;;;5069098;28;20026;-64
2023/06/03 06:26:16;;;;;;;8.95;5.45;;;;;;;;;;5060063;28;20070;-64
2023/06/03 06:28:41;;;;;;;16.77;5.15;;;;;;;;;;5067890;28;20032;-64
2023/06/03 06:31:06;;;;;;;9.63;5.20;;;;;;;;;;5070357;28;20939;-64
2023/06/03 06:33:33;;;;;;;7.25;5.05;;;;;;;;;;5069888;28;20058;-64
2023/06/03 06:36:01;;;;;;;7.68;4.45;;;;;;;;;;5097162;28;20050;-63
2023/06/03 06:38:26;;;;;;;11.43;4.10;;;;;;;;;;5078544;28;20039;-63
2023/06/03 06:40:53;;;;;;;7.03;4.30;;;;;;;;;;5111079;28;20024;-64
2023/06/03 06:43:21;;;;;;;17.73;4.75;;;;;;;;;;5113243;28;20027;-64
2023/06/03 06:45:47;;;;;;;10.35;4.63;;;;;;;;;;5098325;28;20450;-64
2023/06/03 06:48:13;;;;;;;9.13;3.67;;;;;;;;;;5103389;28;20024;-64
2023/06/03 06:50:54;;;;;;;10.07;3.92;;;;;;;;;;5077258;28;20027;-64
2023/06/03 06:53:20;;;;;;;7.47;3.60;;;;;;;;;;5099427;28;20055;-64
2023/06/03 06:55:48;;;;;;;7.78;3.88;;;;;;;;;;5108333;28;20024;-64
2023/06/03 06:58:14;;;;;;;9.18;3.60;;;;;;;;;;5107767;28;20047;-64
2023/06/03 07:00:40;;;;;;;7.95;4.43;;;;;;;;;;5103437;28;20020;-64
2023/06/03 07:03:05;;;;;;;7.15;2.83;;;;;;;;;;5102488;28;20020;-64
2023/06/03 07:05:31;;;;;;;8.35;3.20;;;;;;;;;;5104064;28;20115;-64
2023/06/03 07:07:56;;;;;;;12.43;3.27;;;;;;;;;;5103178;28;20607;-64
2023/06/03 07:10:21;;;;;;;9.93;3.27;;;;;;;;;;5105650;28;20388;-64
2023/06/03 07:12:47;;;;;;;8.88;2.80;;;;;;;;;;5105193;28;20265;-63
2023/06/03 07:15:12;;;;;;;5.18;3.15;;;;;;;;;;5105808;28;20080;-64
2023/06/03 07:17:38;;;;;;;5.20;2.70;;;;;;;;;;5105596;28;20409;-64
2023/06/03 07:20:07;;;;;;;4.95;2.83;;;;;;;;;;5105362;28;20057;-65
2023/06/03 07:22:33;;;;;;;10.63;3.40;;;;;;;;;;5109655;28;20098;-64
2023/06/03 07:24:58;;;;;;;5.18;3.17;;;;;;;;;;5098265;28;20122;-64
2023/06/03 07:27:27;;;;;;;8.15;3.10;;;;;;;;;;5099025;28;20032;-65
2023/06/03 07:29:54;;;;;;;4.82;3.00;;;;;;;;;;5097907;28;20463;-64
2023/06/03 07:32:22;;;;;;;5.40;2.58;;;;;;;;;;5111199;28;20023;-64
2023/06/03 07:34:47;;;;;;;5.57;2.72;;;;;;;;;;5111291;28;20030;-65
2023/06/03 07:37:12;;;;;;;12.90;2.93;;;;;;;;;;5110591;28;20023;-64
2023/06/03 07:39:37;;;;;;;4.72;2.92;;;;;;;;;;5106027;28;20284;-64
2023/06/03 07:42:05;;;;;;;4.68;2.38;;;;;;;;;;5107000;28;20023;-65
2023/06/03 07:44:44;;;;;;;6.25;2.95;;;;;;;;;;5112127;28;20027;-64
2023/06/03 07:47:12;;;;;;;7.57;3.17;;;;;;;;;;5111225;28;20073;-62
2023/06/03 07:49:37;;;;;;;12.05;3.40;;;;;;;;;;5111886;28;20023;-64
2023/06/03 07:52:02;;;;;;;5.17;2.60;;;;;;;;;;5083802;28;20093;-64
2023/06/03 07:54:29;;;;;;;5.80;2.50;;;;;;;;;;5103718;28;20370;-64
2023/06/03 07:56:57;;;;;;;4.90;2.72;;;;;;;;;;5105170;28;20027;-64
2023/06/03 07:59:24;;;;;;;12.18;3.53;;;;;;;;;;5105675;28;20026;-65
2023/06/03 08:01:51;;;;;;;7.00;2.90;;;;;;;;;;5100624;28;20066;-64
2023/06/03 08:04:27;;;;;;;4.60;2.70;;;;;;;;;;5099811;28;20420;-64
2023/06/03 08:06:53;;;;;;;5.78;2.80;;;;;;;;;;5102308;28;20028;-64
2023/06/03 08:09:37;;;;;;;5.93;2.97;;;;;;;;;;5083678;28;20479;-64
2023/06/03 08:12:04;;;;;;;4.80;2.60;;;;;;;;;;5107364;28;20027;-65
2023/06/03 08:14:30;;;;;;;10.35;2.58;;;;;;;;;;5103490;28;20106;-64
2023/06/03 08:16:56;;;;;;;9.27;2.70;;;;;;;;;;5093827;28;20024;-64
2023/06/03 08:19:21;;;;;;;8.57;3.25;;;;;;;;;;5091289;28;20020;-64
2023/06/03 08:21:48;;;;;;;6.23;2.53;;;;;;;;;;5104758;28;20028;-64
2023/06/03 08:24:13;;;;;;;3.78;2.53;;;;;;;;;;5095251;28;20628;-64
2023/06/03 08:26:39;;;;;;;6.32;3.40;;;;;;;;;;5111194;28;20020;-64
2023/06/03 08:29:04;;;;;;;6.95;2.85;;;;;;;;;;5097326;28;20118;-63
2023/06/03 08:31:32;;;;;;;5.40;2.35;;;;;;;;;;5091688;28;20107;-64
2023/06/03 08:33:58;;;;;;;6.03;2.83;;;;;;;;;;5104877;28;20035;-64
2023/06/03 08:36:23;;;;;;;8.27;3.42;;;;;;;;;;5091772;28;20039;-64
2023/06/03 08:38:49;;;;;;;8.13;3.08;;;;;;;;;;5091761;28;20492;-64
2023/06/03 08:41:14;;;;;;;7.40;2.97;;;;;;;;;;5103997;28;20017;-64
2023/06/03 08:44:06;;;;;;;4.97;2.63;;;;;;;;;;5088072;28;20422;-63
2023/06/03 08:46:39;;;;;;;6.55;2.92;;;;;;;;;;5052040;28;20302;-63
2023/06/03 08:49:07;;;;;;;6.43;3.03;;;;;;;;;;5107817;28;20033;-63
2023/06/03 08:51:39;;;;;;;9.80;3.10;;;;;;;;;;5111556;28;20551;-64
2023/06/03 08:54:08;;;;;;;7.28;2.35;;;;;;;;;;5110410;28;20103;-63
2023/06/03 08:56:37;;;;;;;7.03;3.05;;;;;;;;;;5110092;28;20028;-62
2023/06/03 08:59:05;;;;;;;6.32;2.78;;;;;;;;;;5108710;28;20019;-63
2023/06/03 09:01:37;;;;;;;7.20;2.40;;;;;;;;;;5103198;28;20032;-64
2023/06/03 09:04:03;;;;;;;5.35;2.40;;;;;;;;;;5095748;28;20081;-64
2023/06/03 09:06:28;;;;;;;4.05;2.30;;;;;;;;;;5096458;28;20024;-64
2023/06/03 09:08:54;;;;;;;9.23;2.40;;;;;;;;;;5107382;28;20037;-64
2023/06/03 09:11:19;;;;;;;4.78;2.30;;;;;;;;;;5097568;28;20039;-64
2023/06/03 09:13:45;;;;;;;5.97;2.20;;;;;;;;;;5101611;28;20036;-64
2023/06/03 09:16:11;;;;;;;6.00;1.92;;;;;;;;;;5094459;28;20028;-62
2023/06/03 09:18:36;;;;;;;9.07;2.30;;;;;;;;;;5101552;28;20084;-65
2023/06/03 09:21:02;;;;;;;4.80;1.88;;;;;;;;;;5095635;28;20027;-63
2023/06/03 09:23:27;;;;;;;4.63;1.95;;;;;;;;;;5103484;28;20024;-64
2023/06/03 09:25:53;;;;;;;3.40;1.73;;;;;;;;;;5090809;28;20024;-63
2023/06/03 09:28:18;;;;;;;5.35;2.17;;;;;;;;;;5097278;28;20020;-64
2023/06/03 09:30:43;;;;;;;3.65;1.90;;;;;;;;;;5096739;28;20696;-64
2023/06/03 09:33:09;;;;;;;6.80;2.75;;;;;;;;;;5095182;28;20068;-64
2023/06/03 09:35:34;;;;;;;6.28;1.85;;;;;;;;;;5097080;28;20024;-63
2023/06/03 09:38:00;;;;;;;3.60;1.87;;;;;;;;;;5110286;28;20168;-64
2023/06/03 09:40:27;;;;;;;17.33;2.13;;;;;;;;;;5110530;28;20289;-64
2023/06/03 09:42:52;;;;;;;4.47;1.83;;;;;;;;;;5111031;28;20462;-64
2023/06/03 09:45:26;;;;;;;8.93;2.07;;;;;;;;;;5110656;28;20041;-64
2023/06/03 09:47:52;;;;;;;8.38;2.60;;;;;;;;;;5109724;28;20844;-65
2023/06/03 09:50:17;;;;;;;5.57;2.20;;;;;;;;;;5094781;28;20054;-64
2023/06/03 09:52:43;;;;;;;6.22;1.88;;;;;;;;;;5091012;28;20035;-65
2023/06/03 09:55:10;;;;;;;4.93;2.17;;;;;;;;;;5105209;28;20019;-65
2023/06/03 09:57:38;;;;;;;9.52;2.15;;;;;;;;;;5101029;28;20012;-66
2023/06/03 10:00:07;;;;;;;4.80;2.10;;;;;;;;;;5099124;28;20039;-65
2023/06/03 10:02:33;;;;;;;13.85;2.33;;;;;;;;;;5104598;28;20016;-65
2023/06/03 10:04:58;;;;;;;6.40;2.72;;;;;;;;;;5104532;28;20031;-64
2023/06/03 10:07:23;;;;;;;4.15;1.85;;;;;;;;;;5108671;28;20462;-64
2023/06/03 10:09:49;;;;;;;5.32;2.08;;;;;;;;;;5112416;28;20038;-64
2023/06/03 10:12:15;;;;;;;3.55;1.85;;;;;;;;;;5110416;28;20031;-64
2023/06/03 10:14:46;;;;;;;6.35;2.28;;;;;;;;;;5110811;28;20104;-64
2023/06/03 10:17:12;;;;;;;5.35;1.90;;;;;;;;;;5111875;28;20482;-64
2023/06/03 10:19:38;;;;;;;6.13;2.55;;;;;;;;;;5100741;28;20099;-64
2023/06/03 10:22:04;;;;;;;6.07;2.42;;;;;;;;;;5099030;28;20054;-64
2023/06/03 10:24:30;;;;;;;5.68;2.47;;;;;;;;;;5085937;28;20027;-62
2023/06/03 10:26:55;;;;;;;7.40;2.53;;;;;;;;;;5105072;28;20016;-63
2023/06/03 10:29:21;;;;;;;4.88;2.17;;;;;;;;;;5092956;28;20072;-63
2023/06/03 10:31:47;;;;;;;8.18;1.83;;;;;;;;;;5095082;28;20064;-65
2023/06/03 10:34:14;;;;;;;4.05;1.90;;;;;;;;;;5077488;28;20035;-65
2023/06/03 10:36:40;;;;;;;4.57;2.33;;;;;;;;;;5114280;28;20088;-65
2023/06/03 10:39:08;;;;;;;7.25;2.38;;;;;;;;;;5112668;28;20023;-65
2023/06/03 10:41:35;;;;;;;5.07;2.22;;;;;;;;;;5103757;28;20047;-65
2023/06/03 10:44:00;;;;;;;5.00;2.03;;;;;;;;;;5109304;28;20016;-65
2023/06/03 10:46:26;;;;;;;5.22;1.90;;;;;;;;;;5112861;28;20607;-64
2023/06/03 10:48:51;;;;;;;4.05;2.08;;;;;;;;;;5111770;28;20031;-65
2023/06/03 10:51:29;;;;;;;5.82;2.47;;;;;;;;;;5112035;28;20535;-65
2023/06/03 10:54:13;;;;;;;11.00;2.45;;;;;;;;;;5110867;28;20028;-64
2023/06/03 10:56:42;;;;;;;9.93;2.78;;;;;;;;;;5110595;28;20375;-65
2023/06/03 10:59:09;;;;;;;5.35;2.50;;;;;;;;;;5107986;28;20019;-66
2023/06/03 11:01:53;;;;;;;7.28;2.00;;;;;;;;;;5108892;28;20431;-63
2023/06/03 11:04:18;;;;;;;8.55;2.15;;;;;;;;;;5103873;28;20023;-63
2023/06/03 11:06:43;;;;;;;3.92;1.55;;;;;;;;;;5112096;28;20024;-63
2023/06/03 11:09:12;;;;;;;6.18;2.30;;;;;;;;;;5111666;28;20490;-63
2023/06/03 11:11:40;;;;;;;6.38;2.60;;;;;;;;;;5094805;28;20039;-62
2023/06/03 11:14:06;;;;;;;7.43;2.55;;;;;;;;;;5096951;28;20024;-60
2023/06/03 11:16:52;;;;;;;9.70;2.60;;;;;;;;;;5094641;28;20012;-61
2023/06/03 11:19:31;;;;;;;5.80;2.20;;;;;;;;;;5094426;28;20119;-62
2023/06/03 11:21:56;;;;;;;6.72;2.17;;;;;;;;;;5099597;28;20043;-63
2023/06/03 11:24:41;;;;;;;5.82;2.28;;;;;;;;;;5095883;28;20442;-62
2023/06/03 11:27:09;;;;;;;7.03;2.38;;;;;;;;;;5112516;28;20020;-63
2023/06/03 11:29:51;;;;;;;8.00;2.40;;;;;;;;;;5093996;28;20039;-62
2023/06/03 11:32:28;;;;;;;4.30;2.15;;;;;;;;;;5092103;28;20035;-63
2023/06/03 11:34:59;;;;;;;10.30;2.25;;;;;;;;;;5099138;28;20512;-63
2023/06/03 11:37:43;;;;;;;5.00;2.25;;;;;;;;;;5098332;28;20097;-63
2023/06/03 11:40:12;;;;;;;7.05;2.17;;;;;;;;;;5092956;28;20107;-63
2023/06/03 11:42:46;;;;;;;6.90;2.40;;;;;;;;;;5093626;28;20024;-63
2023/06/03 11:45:21;;;;;;;5.70;2.28;;;;;;;;;;5092870;28;20478;-63
2023/06/03 11:47:56;;;;;;;7.85;2.65;;;;;;;;;;5101179;28;20069;-63
2023/06/03 11:50:25;;;;;;;7.95;3.15;;;;;;;;;;5106366;28;20042;-63
2023/06/03 11:52:51;;;;;;;7.30;2.50;;;;;;;;;;5092916;28;20038;-65
2023/06/03 11:55:22;;;;;;;5.43;2.40;;;;;;;;;;5093709;28;20028;-62
2023/06/03 11:57:47;;;;;;;7.50;2.88;;;;;;;;;;5101996;28;20035;-62
2023/06/03 12:00:13;;;;;;;6.45;2.67;;;;;;;;;;5109112;28;20042;-64
2023/06/03 12:02:40;;;;;;;7.28;3.15;;;;;;;;;;5092010;28;20020;-63
2023/06/03 12:05:06;;;;;;;6.22;2.15;;;;;;;;;;5092282;28;20060;-64
2023/06/03 12:07:31;;;;;;;4.35;2.58;;;;;;;;;;5100472;28;20023;-64
2023/06/03 12:09:57;;;;;;;6.80;2.40;;;;;;;;;;5095792;28;20479;-65
2023/06/03 12:12:22;;;;;;;5.72;2.58;;;;;;;;;;5101781;28;20039;-64
2023/06/03 12:14:47;;;;;;;4.55;2.58;;;;;;;;;;5099071;28;20024;-64
2023/06/03 12:17:14;;;;;;;5.97;3.10;;;;;;;;;;5090676;28;20059;-65
2023/06/03 12:19:40;;;;;;;5.30;2.50;;;;;;;;;;5092159;28;20297;-64
2023/06/03 12:22:06;;;;;;;6.55;2.97;;;;;;;;;;5091362;28;20509;-65
2023/06/03 12:24:31;;;;;;;4.75;2.60;;;;;;;;;;5091321;28;20059;-64
2023/06/03 12:27:09;;;;;;;5.40;2.33;;;;;;;;;;5100418;28;20051;-63
2023/06/03 12:29:40;;;;;;;7.70;2.63;;;;;;;;;;5093381;28;20031;-64
2023/06/03 12:32:05;;;;;;;8.70;2.13;;;;;;;;;;5090872;28;20036;-64
2023/06/03 12:34:31;;;;;;;7.05;2.53;;;;;;;;;;5091480;28;20028;-64
2023/06/03 12:36:57;;;;;;;4.95;2.45;;;;;;;;;;5102457;28;20052;-64
2023/06/03 12:39:37;;;;;;;4.13;2.38;;;;;;;;;;5100057;28;20020;-64
2023/06/03 12:42:03;;;;;;;8.88;2.72;;;;;;;;;;5109815;28;20488;-64
2023/06/03 12:44:28;;;;;;;11.95;3.17;;;;;;;;;;5096431;28;20015;-61
2023/06/03 12:47:00;;;;;;;9.18;2.42;;;;;;;;;;5093125;28;20444;-64
2023/06/03 12:49:25;;;;;;;4.85;2.25;;;;;;;;;;5096534;28;20020;-64
2023/06/03 12:51:51;;;;;;;8.40;2.53;;;;;;;;;;5104530;28;20024;-63
2023/06/03 12:54:16;;;;;;;6.93;2.47;;;;;;;;;;5108587;28;20019;-64
2023/06/03 12:56:43;;;;;;;4.57;2.40;;;;;;;;;;5104744;28;20024;-62
2023/06/03 12:59:08;;;;;;;4.55;2.20;;;;;;;;;;5110553;28;20273;-63
2023/06/03 13:01:34;;;;;;;5.57;2.10;;;;;;;;;;5104275;28;20378;-62
2023/06/03 13:04:00;;;;;;;5.18;2.63;;;;;;;;;;5107710;28;20028;-65
2023/06/03 13:06:25;;;;;;;3.78;2.00;;;;;;;;;;5102946;28;20079;-65
2023/06/03 13:08:51;;;;;;;11.68;2.67;;;;;;;;;;5106079;28;20024;-64
2023/06/03 13:11:21;;;;;;;6.47;2.22;;;;;;;;;;5101469;28;20027;-64
2023/06/03 13:13:46;;;;;;;5.10;2.00;;;;;;;;;;5110285;28;20016;-65
2023/06/03 13:16:12;;;;;;;11.82;2.42;;;;;;;;;;5103435;28;20489;-63
2023/06/03 13:18:37;;;;;;;9.30;2.03;;;;;;;;;;5107564;28;20039;-64
2023/06/03 13:21:03;;;;;;;10.82;2.78;;;;;;;;;;5104254;28;20032;-64
2023/06/03 13:23:29;;;;;;;4.25;2.10;;;;;;;;;;5100779;28;20032;-64
2023/06/03 13:25:55;;;;;;;10.93;2.47;;;;;;;;;;5086646;28;20032;-64
2023/06/03 13:28:20;;;;;;;5.07;2.05;;;;;;;;;;5110770;28;20509;-64
2023/06/03 13:30:48;;;;;;;4.70;2.07;;;;;;;;;;5113798;28;20023;-63
2023/06/03 13:33:14;;;;;;;5.32;1.90;;;;;;;;;;5110306;28;21086;-65
2023/06/03 13:35:39;;;;;;;4.78;1.98;;;;;;;;;;5100380;28;20026;-65
2023/06/03 13:38:04;;;;;;;11.50;2.40;;;;;;;;;;5107153;28;20039;-65
2023/06/03 13:40:31;;;;;;;7.17;2.60;;;;;;;;;;5103891;28;20266;-65
2023/06/03 13:42:58;;;;;;;6.35;2.83;;;;;;;;;;5106322;28;20269;-64
2023/06/03 13:45:23;;;;;;;6.55;2.65;;;;;;;;;;5108600;28;20080;-62
2023/06/03 13:47:48;;;;;;;3.30;2.17;;;;;;;;;;5097263;28;20046;-64
2023/06/03 13:50:13;;;;;;;4.87;2.27;;;;;;;;;;5106320;28;20032;-62
2023/06/03 13:52:39;;;;;;;6.60;2.40;;;;;;;;;;5100745;28;20028;-64
2023/06/03 13:55:04;;;;;;;10.35;3.08;;;;;;;;;;5089992;28;20266;-62
2023/06/03 13:57:30;;;;;;;5.10;2.50;;;;;;;;;;5100937;28;20102;-64
2023/06/03 13:59:55;;;;;;;5.18;2.30;;;;;;;;;;5100231;28;20386;-62
2023/06/03 14:02:20;;;;;;;6.57;2.43;;;;;;;;;;5106675;28;20036;-64
2023/06/03 14:04:46;;;;;;;6.80;2.40;;;;;;;;;;5094865;28;20314;-62
2023/06/03 14:07:11;;;;;;;10.55;2.70;;;;;;;;;;5100572;28;20272;-63
2023/06/03 14:09:36;;;;;;;5.28;2.03;;;;;;;;;;5101731;28;20028;-64
2023/06/03 14:12:02;;;;;;;7.35;2.72;;;;;;;;;;5093744;28;20028;-63
2023/06/03 14:14:28;;;;;;;7.95;2.20;;;;;;;;;;5101905;28;20028;-64
2023/06/03 14:16:53;;;;;;;5.90;2.22;;;;;;;;;;5098753;28;20048;-65
2023/06/03 14:19:18;;;;;;;4.70;2.53;;;;;;;;;;5110583;28;20095;-64
2023/06/03 14:21:44;;;;;;;9.02;2.20;;;;;;;;;;5109359;28;20284;-64
2023/06/03 14:24:09;;;;;;;5.20;2.00;;;;;;;;;;5098575;28;20020;-62
2023/06/03 14:26:36;;;;;;;8.35;2.75;;;;;;;;;;5102975;28;20355;-64
2023/06/03 14:29:02;;;;;;;13.57;2.95;;;;;;;;;;5112413;28;20031;-64
2023/06/03 14:31:28;;;;;;;6.00;2.45;;;;;;;;;;5108899;28;20028;-64
2023/06/03 14:33:53;;;;;;;7.47;2.63;;;;;;;;;;5106622;28;20016;-64